Time;durP1;ratioP1;P1;durP2;ratioP2;P2;SDS_P1;SDS_P2;PMS_P1;PMS_P2;Temp;Humidity;BMP_temperature;BMP_pressure;BME280_temperature;BME280_humidity;BME280_pressure;Samples;Min_cycle;Max_cycle;Signal;HPM_P1;HPM_P2
2022/01/21 00:02:12;;;;;;;11.75;4.57;;;2.30;99.90;;;;;;4948132;29;20254;-62
2022/01/21 00:04:40;;;;;;;11.02;4.28;;;2.30;99.90;;;;;;4958940;28;20570;-62
2022/01/21 00:07:09;;;;;;;7.20;3.90;;;2.20;99.90;;;;;;4947762;28;20238;-62
2022/01/21 00:09:37;;;;;;;9.32;4.53;;;2.20;99.90;;;;;;4948857;29;20667;-62
2022/01/21 00:12:05;;;;;;;12.25;4.75;;;2.20;99.90;;;;;;4951178;28;20302;-62
2022/01/21 00:14:33;;;;;;;7.53;4.25;;;2.30;99.90;;;;;;4954533;28;20240;-61
2022/01/21 00:17:01;;;;;;;9.38;4.47;;;2.20;99.90;;;;;;4954290;28;20422;-62
2022/01/21 00:19:36;;;;;;;9.80;4.68;;;2.20;99.90;;;;;;4954345;28;20223;-62
2022/01/21 00:30:24;;;;;;;9.75;4.63;;;2.20;99.90;;;;;;4953835;29;20278;-61
2022/01/21 00:32:52;;;;;;;9.20;4.10;;;2.20;99.90;;;;;;4953853;28;20208;-62
2022/01/21 00:35:21;;;;;;;8.95;4.03;;;2.30;99.90;;;;;;4954016;28;20219;-62
2022/01/21 00:37:50;;;;;;;12.27;4.10;;;2.20;99.90;;;;;;4953815;28;20270;-62
2022/01/21 00:40:23;;;;;;;12.25;4.53;;;2.20;99.90;;;;;;4953638;28;20775;-63
2022/01/21 00:43:13;;;;;;;11.30;4.68;;;2.10;99.90;;;;;;4955261;28;20307;-62
2022/01/21 00:45:41;;;;;;;8.25;3.58;;;2.10;99.90;;;;;;4954173;28;20282;-61
2022/01/21 00:48:09;;;;;;;9.93;5.13;;;2.10;99.90;;;;;;4948147;29;20247;-62
2022/01/21 00:50:36;;;;;;;8.18;4.40;;;2.10;99.90;;;;;;4947707;29;20282;-62
2022/01/21 00:53:05;;;;;;;5.60;4.00;;;2.00;99.90;;;;;;4953555;28;20242;-61
2022/01/21 00:55:34;;;;;;;11.75;4.50;;;2.00;99.90;;;;;;4953858;28;20282;-62
2022/01/21 00:58:02;;;;;;;9.05;4.60;;;2.00;99.90;;;;;;4953650;28;20632;-62
2022/01/21 01:00:31;;;;;;;8.60;4.07;;;2.00;99.90;;;;;;4953438;28;20790;-62
2022/01/21 01:02:59;;;;;;;6.80;4.32;;;2.10;99.90;;;;;;4953531;28;20211;-62
2022/01/21 01:05:27;;;;;;;9.80;4.55;;;2.00;99.90;;;;;;4953436;28;20203;-62
2022/01/21 01:07:55;;;;;;;8.32;4.68;;;2.00;99.90;;;;;;4953343;28;20278;-61
2022/01/21 01:10:36;;;;;;;8.07;4.70;;;2.00;99.90;;;;;;4958958;28;20305;-62
2022/01/21 01:21:22;;;;;;;9.18;4.30;;;2.00;99.90;;;;;;4953293;28;20290;-62
2022/01/21 01:24:03;;;;;;;7.05;4.00;;;2.00;99.90;;;;;;4953189;28;20242;-62
2022/01/21 01:29:19;;;;;;;7.25;4.30;;;2.00;99.90;;;;;;4953110;28;20263;-62
2022/01/21 01:31:47;;;;;;;11.18;5.55;;;1.90;99.90;;;;;;4953229;28;20625;-62
2022/01/21 01:34:15;;;;;;;6.80;4.47;;;2.00;99.90;;;;;;4953078;28;20210;-62
2022/01/21 01:36:45;;;;;;;8.75;4.90;;;2.00;99.90;;;;;;4952817;28;20315;-62
2022/01/21 01:39:17;;;;;;;8.25;5.60;;;2.00;99.90;;;;;;4952778;29;20263;-63
2022/01/21 01:41:51;;;;;;;7.85;5.60;;;2.00;99.90;;;;;;4952618;28;20249;-63
2022/01/21 01:49:51;;;;;;;12.10;6.00;;;1.70;99.90;;;;;;4953032;28;20649;-62
2022/01/21 01:52:20;;;;;;;10.57;5.78;;;1.70;99.90;;;;;;4952397;28;20235;-62
2022/01/21 01:54:50;;;;;;;14.52;6.32;;;1.60;99.90;;;;;;4953048;28;20246;-62
2022/01/21 01:57:18;;;;;;;14.27;5.90;;;1.60;99.90;;;;;;4952965;29;20254;-62
2022/01/21 01:59:48;;;;;;;13.50;8.40;;;1.60;99.90;;;;;;4953008;28;20649;-62
2022/01/21 02:02:19;;;;;;;9.68;5.90;;;1.50;99.90;;;;;;4946454;29;20235;-62
2022/01/21 02:04:49;;;;;;;11.45;6.55;;;1.50;99.90;;;;;;4947274;29;20258;-62
2022/01/21 02:07:17;;;;;;;12.98;5.75;;;1.50;99.90;;;;;;4953049;28;20212;-62
2022/01/21 02:09:45;;;;;;;14.10;6.70;;;1.50;99.90;;;;;;4952818;28;20306;-62
2022/01/21 02:12:13;;;;;;;11.57;6.03;;;1.50;99.90;;;;;;4952466;28;20639;-62
2022/01/21 02:14:48;;;;;;;8.73;5.22;;;1.50;99.90;;;;;;4953545;28;20289;-63
2022/01/21 02:21:28;;;;;;;11.43;5.38;;;1.50;99.90;;;;;;4958298;28;20218;-62
2022/01/21 02:22:56;;;;;;;10.77;5.53;;;1.50;99.90;;;;;;4952352;28;20254;-62
2022/01/21 02:25:24;;;;;;;14.23;7.00;;;1.50;99.90;;;;;;4952745;28;20294;-63
2022/01/21 02:27:55;;;;;;;14.00;6.43;;;1.50;99.90;;;;;;4952592;28;20195;-62
2022/01/21 02:30:25;;;;;;;10.45;6.22;;;1.40;99.90;;;;;;4954916;28;20326;-63
2022/01/21 02:32:55;;;;;;;12.40;5.38;;;1.40;99.90;;;;;;4956126;28;20231;-62
2022/01/21 02:35:24;;;;;;;10.85;6.05;;;1.40;99.90;;;;;;4956436;28;20290;-62
2022/01/21 02:37:53;;;;;;;7.10;5.50;;;1.40;99.90;;;;;;4956206;28;20246;-62
2022/01/21 02:40:22;;;;;;;14.65;6.70;;;1.50;99.90;;;;;;4955953;28;20768;-62
2022/01/21 02:42:50;;;;;;;14.93;5.95;;;1.50;99.90;;;;;;4955658;28;20234;-62
2022/01/21 02:45:18;;;;;;;13.80;6.20;;;1.50;99.90;;;;;;4956207;29;20234;-62
2022/01/21 02:47:46;;;;;;;13.93;6.18;;;1.50;99.90;;;;;;4956094;28;20233;-62
2022/01/21 02:50:16;;;;;;;11.63;6.20;;;1.40;99.90;;;;;;4956116;28;20231;-62
2022/01/21 02:52:55;;;;;;;11.00;6.35;;;1.40;99.90;;;;;;4955663;28;20585;-63
2022/01/21 02:55:26;;;;;;;11.23;6.25;;;1.40;99.90;;;;;;4956066;28;20246;-62
2022/01/21 02:57:54;;;;;;;10.85;6.45;;;1.50;99.90;;;;;;4955879;28;20338;-62
2022/01/21 03:00:22;;;;;;;13.52;6.40;;;1.50;99.90;;;;;;4955780;28;20302;-62
2022/01/21 03:02:50;;;;;;;11.95;6.72;;;1.50;99.90;;;;;;4955510;28;20263;-62
2022/01/21 03:05:18;;;;;;;12.25;6.53;;;1.50;99.90;;;;;;4955781;28;20211;-62
2022/01/21 03:07:47;;;;;;;16.23;7.22;;;1.50;99.90;;;;;;4955722;28;20227;-63
2022/01/21 03:10:16;;;;;;;10.07;5.95;;;1.50;99.90;;;;;;4955647;28;20318;-63
2022/01/21 03:12:46;;;;;;;13.77;6.60;;;1.50;99.90;;;;;;4950543;28;20239;-61
2022/01/21 03:15:14;;;;;;;10.43;5.75;;;1.50;99.90;;;;;;4949316;29;20262;-62
2022/01/21 03:17:41;;;;;;;14.20;6.57;;;1.60;99.90;;;;;;4949184;29;20250;-62
2022/01/21 03:20:11;;;;;;;10.90;6.63;;;1.60;99.90;;;;;;4949304;29;20734;-62
2022/01/21 03:22:39;;;;;;;11.52;7.25;;;1.60;99.90;;;;;;4958634;28;20683;-61
2022/01/21 03:25:08;;;;;;;13.65;6.35;;;1.60;99.90;;;;;;4955442;28;20206;-62
2022/01/21 03:27:37;;;;;;;12.13;6.00;;;1.60;99.90;;;;;;4955414;28;20310;-62
2022/01/21 03:30:09;;;;;;;10.60;7.03;;;1.60;99.90;;;;;;4955081;29;20262;-62
2022/01/21 03:32:36;;;;;;;14.75;6.88;;;1.60;99.90;;;;;;4955062;28;20207;-62
2022/01/21 03:35:05;;;;;;;17.20;6.65;;;1.60;99.90;;;;;;4955103;28;20302;-62
2022/01/21 03:37:33;;;;;;;14.40;6.97;;;1.60;99.90;;;;;;4955164;28;20235;-61
2022/01/21 03:40:01;;;;;;;9.88;6.13;;;1.60;99.90;;;;;;4954929;28;20618;-62
2022/01/21 03:42:29;;;;;;;14.65;6.90;;;1.70;99.90;;;;;;4953791;28;20254;-61
2022/01/21 03:44:57;;;;;;;15.60;8.02;;;1.70;99.90;;;;;;4954867;28;20231;-61
2022/01/21 03:47:26;;;;;;;12.90;5.88;;;1.70;99.90;;;;;;4955176;28;20566;-62
2022/01/21 03:49:58;;;;;;;14.70;6.63;;;1.70;99.90;;;;;;4954908;28;20302;-62
2022/01/21 03:52:25;;;;;;;11.07;6.35;;;1.70;99.90;;;;;;4954681;28;20215;-63
2022/01/21 03:54:53;;;;;;;12.80;7.10;;;1.70;99.90;;;;;;4954982;28;20227;-63
2022/01/21 03:57:21;;;;;;;10.13;6.10;;;1.70;99.90;;;;;;4954826;28;20315;-62
2022/01/21 03:59:49;;;;;;;9.32;6.00;;;1.60;99.90;;;;;;4954766;28;20261;-62
2022/01/21 04:02:17;;;;;;;11.27;5.85;;;1.60;99.90;;;;;;4954372;28;20307;-63
2022/01/21 04:04:46;;;;;;;10.63;6.22;;;1.60;99.90;;;;;;4954765;28;20295;-62
2022/01/21 04:07:14;;;;;;;12.43;6.40;;;1.50;99.90;;;;;;4954443;28;20242;-62
2022/01/21 04:09:42;;;;;;;13.38;6.15;;;1.50;99.90;;;;;;4954618;28;20688;-62
2022/01/21 04:12:10;;;;;;;15.32;6.95;;;1.50;99.90;;;;;;4954064;28;20307;-61
2022/01/21 04:14:38;;;;;;;12.43;5.85;;;1.50;99.90;;;;;;4954280;28;20207;-60
2022/01/21 04:17:06;;;;;;;17.52;7.22;;;1.50;99.90;;;;;;4954258;29;20257;-61
2022/01/21 04:19:34;;;;;;;13.70;6.75;;;1.50;99.90;;;;;;4954286;28;20792;-62
2022/01/21 04:22:04;;;;;;;10.73;6.70;;;1.40;99.90;;;;;;4954200;28;20286;-61
2022/01/21 04:24:32;;;;;;;9.70;6.55;;;1.50;99.90;;;;;;4954299;28;20215;-63
2022/01/21 04:27:00;;;;;;;10.65;6.47;;;1.50;99.90;;;;;;4955625;28;20298;-63
2022/01/21 04:29:28;;;;;;;9.75;7.03;;;1.50;99.90;;;;;;4962708;28;20219;-62
2022/01/21 04:31:56;;;;;;;11.90;6.97;;;1.50;99.90;;;;;;4953968;28;20215;-62
2022/01/21 04:34:23;;;;;;;12.98;7.40;;;1.50;99.90;;;;;;4954147;28;20650;-62
2022/01/21 04:36:51;;;;;;;10.90;6.63;;;1.60;99.90;;;;;;4952201;29;20262;-62
2022/01/21 04:39:26;;;;;;;8.13;6.45;;;1.60;99.90;;;;;;4979280;23;20325;-74
2022/01/21 04:47:22;;;;;;;11.40;7.07;;;1.60;99.90;;;;;;4950478;28;20286;-73
2022/01/21 04:49:51;;;;;;;10.90;6.60;;;1.60;99.90;;;;;;4954374;28;20298;-73
2022/01/21 04:52:19;;;;;;;11.13;6.82;;;1.60;99.90;;;;;;4953785;28;20235;-74
2022/01/21 04:54:49;;;;;;;12.10;6.57;;;1.60;99.90;;;;;;4954092;29;20208;-74
2022/01/21 04:57:18;;;;;;;9.77;6.90;;;1.60;99.90;;;;;;4953741;29;20712;-74
2022/01/21 04:59:46;;;;;;;11.98;6.90;;;1.60;99.90;;;;;;4953785;29;20696;-73
2022/01/21 05:02:14;;;;;;;12.05;7.13;;;1.60;99.90;;;;;;4953803;29;20238;-73
2022/01/21 05:04:42;;;;;;;12.05;7.60;;;1.60;99.90;;;;;;4954115;29;20235;-74
2022/01/21 05:07:13;;;;;;;11.80;6.78;;;1.60;99.90;;;;;;4953686;29;20601;-74
2022/01/21 05:09:41;;;;;;;11.85;7.28;;;1.60;99.90;;;;;;4954097;29;20318;-73
2022/01/21 05:12:13;;;;;;;11.10;6.63;;;1.60;99.90;;;;;;4944991;29;20652;-72
2022/01/21 05:14:45;;;;;;;9.88;6.40;;;1.60;99.90;;;;;;4942841;28;20290;-74
2022/01/21 05:17:14;;;;;;;11.40;6.90;;;1.60;99.90;;;;;;4952485;29;20290;-74
2022/01/21 05:19:42;;;;;;;13.98;8.30;;;1.60;99.90;;;;;;4953448;29;20313;-73
2022/01/21 05:22:10;;;;;;;14.88;7.35;;;1.60;99.90;;;;;;4948602;29;20949;-73
2022/01/21 05:24:38;;;;;;;13.60;8.02;;;1.60;99.90;;;;;;4953919;29;20695;-74
2022/01/21 05:27:07;;;;;;;13.93;6.82;;;1.60;99.90;;;;;;4941338;29;20228;-75
2022/01/21 05:29:36;;;;;;;15.43;6.70;;;1.60;99.90;;;;;;4949208;29;20583;-73
2022/01/21 05:32:06;;;;;;;17.02;8.05;;;1.60;99.90;;;;;;4929162;29;20310;-72
2022/01/21 05:34:34;;;;;;;11.43;6.88;;;1.60;99.90;;;;;;4942373;29;20199;-74
2022/01/21 05:37:07;;;;;;;12.25;7.28;;;1.60;99.90;;;;;;4937760;29;21040;-74
2022/01/21 05:39:36;;;;;;;12.98;7.78;;;1.60;99.90;;;;;;4947294;29;20270;-72
2022/01/21 05:42:06;;;;;;;11.27;6.68;;;1.60;99.90;;;;;;4942966;29;20290;-72
2022/01/21 05:47:21;;;;;;;10.07;7.00;;;1.50;99.90;;;;;;4936476;28;20624;-71
2022/01/21 05:49:54;;;;;;;13.73;7.88;;;1.50;99.90;;;;;;4944336;28;20250;-73
2022/01/21 05:52:30;;;;;;;12.82;7.90;;;1.50;99.90;;;;;;4944450;28;20339;-72
2022/01/21 05:54:58;;;;;;;14.27;7.55;;;1.60;99.90;;;;;;4951256;28;20242;-73
2022/01/21 05:57:26;;;;;;;15.05;8.82;;;1.60;99.90;;;;;;4952680;29;20203;-72
2022/01/21 05:59:56;;;;;;;9.55;8.50;;;1.10;99.90;;;;;;4942986;29;20243;-73
2022/01/21 06:02:24;;;;;;;14.13;8.35;;;1.50;99.90;;;;;;4949649;29;20241;-72
2022/01/21 06:04:52;;;;;;;10.10;8.15;;;1.60;99.90;;;;;;4948171;28;20225;-73
2022/01/21 06:07:20;;;;;;;14.90;9.00;;;1.50;99.90;;;;;;4958411;29;20263;-75
2022/01/21 06:09:48;;;;;;;15.52;9.65;;;1.60;99.90;;;;;;4954973;29;20250;-74
2022/01/21 06:12:15;;;;;;;11.52;8.68;;;1.60;99.90;;;;;;4943234;29;20807;-74
2022/01/21 06:14:43;;;;;;;13.65;8.40;;;1.60;99.90;;;;;;4943439;29;21054;-72
2022/01/21 06:17:15;;;;;;;14.70;8.82;;;1.60;99.90;;;;;;4947266;29;20208;-72
2022/01/21 06:19:43;;;;;;;19.55;9.55;;;1.60;99.90;;;;;;4937675;29;20282;-73
2022/01/21 06:22:12;;;;;;;13.20;8.80;;;1.70;99.90;;;;;;4934345;29;20235;-73
2022/01/21 06:24:40;;;;;;;12.85;9.38;;;1.60;99.90;;;;;;4943181;29;20739;-72
2022/01/21 06:27:08;;;;;;;13.80;9.50;;;1.60;99.90;;;;;;4947301;28;20291;-72
2022/01/21 06:29:36;;;;;;;11.52;8.80;;;1.60;99.90;;;;;;4937565;29;20314;-73
2022/01/21 06:32:05;;;;;;;15.57;10.50;;;1.60;99.90;;;;;;4946292;29;20261;-73
2022/01/21 06:34:34;;;;;;;11.57;8.85;;;1.60;99.90;;;;;;4943106;29;20254;-72
2022/01/21 06:37:02;;;;;;;13.05;10.32;;;1.60;99.90;;;;;;4943167;28;20204;-74
2022/01/21 06:39:30;;;;;;;14.40;9.90;;;1.60;99.90;;;;;;4944886;29;20267;-71
2022/01/21 06:41:57;;;;;;;15.50;10.05;;;1.60;99.90;;;;;;4936580;29;20231;-71
2022/01/21 06:44:25;;;;;;;15.77;9.30;;;1.60;99.90;;;;;;4944965;29;20295;-72
2022/01/21 06:46:53;;;;;;;13.10;8.75;;;1.60;99.90;;;;;;4944032;28;20770;-74
2022/01/21 06:49:21;;;;;;;14.77;9.40;;;1.60;99.90;;;;;;4940147;29;20228;-73
2022/01/21 06:51:50;;;;;;;13.55;9.48;;;1.70;99.90;;;;;;4948578;28;20290;-71
2022/01/21 06:54:18;;;;;;;19.75;9.93;;;1.70;99.90;;;;;;4944885;29;20221;-74
2022/01/21 06:56:46;;;;;;;16.58;11.00;;;1.70;99.90;;;;;;4943844;29;20242;-74
2022/01/21 06:59:14;;;;;;;18.67;9.95;;;1.70;99.90;;;;;;4936636;29;20327;-73
2022/01/21 07:01:42;;;;;;;16.80;11.60;;;1.70;99.90;;;;;;4949400;29;20368;-73
2022/01/21 07:04:10;;;;;;;12.02;9.02;;;1.80;99.90;;;;;;4945725;29;20215;-74
2022/01/21 07:06:37;;;;;;;14.98;10.38;;;1.80;99.90;;;;;;4948459;29;21054;-73
2022/01/21 07:09:07;;;;;;;13.52;10.52;;;1.80;99.90;;;;;;4943080;29;20766;-72
2022/01/21 07:11:35;;;;;;;18.05;10.90;;;1.80;99.90;;;;;;4944455;29;20260;-73
2022/01/21 07:14:03;;;;;;;15.50;10.40;;;1.80;99.90;;;;;;4942348;29;20215;-70
2022/01/21 07:16:31;;;;;;;13.20;11.23;;;1.80;99.90;;;;;;4948410;28;20306;-71
2022/01/21 07:18:58;;;;;;;15.10;11.10;;;1.80;99.90;;;;;;4944488;29;20324;-73
2022/01/21 07:21:26;;;;;;;14.27;9.77;;;1.80;99.90;;;;;;4945006;29;20248;-70
2022/01/21 07:23:54;;;;;;;17.92;9.27;;;1.90;99.90;;;;;;4940453;29;20639;-70
2022/01/21 07:26:23;;;;;;;17.13;11.27;;;1.90;99.90;;;;;;4942574;28;20432;-72
2022/01/21 07:28:51;;;;;;;14.48;10.80;;;1.90;99.90;;;;;;4945460;29;20227;-73
2022/01/21 07:31:19;;;;;;;13.15;10.55;;;1.90;99.90;;;;;;4944132;29;20286;-73
2022/01/21 07:33:47;;;;;;;15.05;10.75;;;2.00;99.90;;;;;;4955227;29;20302;-74
2022/01/21 07:36:15;;;;;;;14.80;9.70;;;1.90;99.90;;;;;;4954347;28;20286;-72
2022/01/21 07:38:43;;;;;;;19.80;11.50;;;1.90;99.90;;;;;;4955429;29;20239;-74
2022/01/21 07:41:11;;;;;;;16.80;11.45;;;1.90;99.90;;;;;;4955202;29;20819;-74
2022/01/21 07:43:42;;;;;;;16.40;11.63;;;1.90;99.90;;;;;;4943601;29;20566;-74
2022/01/21 07:46:10;;;;;;;13.93;10.80;;;1.90;99.90;;;;;;4939544;29;20214;-74
2022/01/21 07:48:38;;;;;;;17.25;11.55;;;1.90;99.90;;;;;;4940914;29;20215;-72
2022/01/21 07:51:06;;;;;;;18.45;12.38;;;1.90;99.90;;;;;;4950404;29;20253;-73
2022/01/21 07:53:34;;;;;;;14.82;12.48;;;1.90;99.90;;;;;;4954892;28;20199;-73
2022/01/21 07:56:03;;;;;;;14.82;12.02;;;1.80;99.90;;;;;;4955201;29;20201;-74
2022/01/21 07:58:31;;;;;;;16.20;11.65;;;1.90;99.90;;;;;;4955071;29;20208;-74
2022/01/21 08:01:00;;;;;;;20.42;12.20;;;1.90;99.90;;;;;;4954801;28;20274;-74
2022/01/21 08:03:29;;;;;;;15.38;11.63;;;1.90;99.90;;;;;;4954832;29;20203;-73
2022/01/21 08:05:57;;;;;;;18.52;12.35;;;2.00;99.90;;;;;;4954991;28;20577;-74
2022/01/21 08:08:26;;;;;;;17.52;12.55;;;2.10;99.90;;;;;;4954925;29;20570;-74
2022/01/21 08:10:54;;;;;;;20.02;13.23;;;2.10;99.90;;;;;;4955121;28;20223;-75
2022/01/21 08:13:22;;;;;;;15.63;11.00;;;2.20;99.90;;;;;;4954950;29;20595;-74
2022/01/21 08:15:50;;;;;;;15.02;11.93;;;2.30;99.90;;;;;;4951115;28;20231;-73
2022/01/21 08:18:20;;;;;;;16.42;11.98;;;2.30;99.90;;;;;;4949980;28;20630;-73
2022/01/21 08:20:48;;;;;;;20.50;14.25;;;2.30;99.90;;;;;;4954931;29;20317;-73
2022/01/21 08:23:16;;;;;;;24.10;14.38;;;2.30;99.90;;;;;;4954643;28;20219;-73
2022/01/21 08:25:44;;;;;;;19.67;13.82;;;2.40;99.90;;;;;;4955068;29;20251;-74
2022/01/21 08:28:12;;;;;;;16.63;12.30;;;2.50;99.90;;;;;;4954784;28;20241;-74
2022/01/21 08:30:40;;;;;;;19.55;12.15;;;2.60;99.90;;;;;;4955273;29;20227;-75
2022/01/21 08:33:08;;;;;;;21.42;12.55;;;2.80;99.90;;;;;;4955382;28;20231;-74
2022/01/21 08:35:38;;;;;;;19.58;11.60;;;2.90;99.90;;;;;;4955437;28;20217;-72
2022/01/21 08:38:06;;;;;;;20.73;11.50;;;3.00;99.90;;;;;;4955143;28;20571;-74
2022/01/21 08:40:35;;;;;;;21.35;13.65;;;3.10;99.90;;;;;;4954487;28;20298;-75
2022/01/21 08:43:03;;;;;;;19.73;13.90;;;3.10;99.90;;;;;;4954080;29;20712;-74
2022/01/21 08:45:32;;;;;;;22.95;14.15;;;3.10;99.90;;;;;;4950365;28;20227;-74
2022/01/21 08:48:00;;;;;;;17.83;13.77;;;3.10;99.90;;;;;;4945543;28;20218;-74
2022/01/21 08:50:28;;;;;;;25.30;14.45;;;3.30;99.90;;;;;;4954018;28;20330;-74
2022/01/21 08:53:08;;;;;;;17.60;12.88;;;3.30;99.90;;;;;;4954373;29;20645;-74
2022/01/21 08:55:36;;;;;;;16.45;12.68;;;3.40;99.90;;;;;;4953815;29;20295;-74
2022/01/21 08:58:04;;;;;;;17.63;12.05;;;3.40;99.90;;;;;;4953723;29;20298;-73
2022/01/21 09:00:32;;;;;;;18.85;11.45;;;3.40;99.90;;;;;;4954049;29;20231;-74
2022/01/21 09:03:00;;;;;;;24.48;11.27;;;3.40;99.90;;;;;;4953922;29;20302;-73
2022/01/21 09:05:28;;;;;;;14.10;9.98;;;3.40;99.90;;;;;;4954032;29;20218;-74
2022/01/21 09:07:57;;;;;;;15.75;10.20;;;3.30;99.90;;;;;;4953920;28;20290;-74
2022/01/21 09:10:25;;;;;;;21.83;10.85;;;3.40;99.90;;;;;;4953590;28;20763;-71
2022/01/21 09:12:53;;;;;;;15.88;11.20;;;3.40;99.90;;;;;;4953596;29;20242;-74
2022/01/21 09:15:25;;;;;;;16.40;9.93;;;3.40;99.90;;;;;;4952861;29;20246;-74
2022/01/21 09:18:03;;;;;;;14.35;9.73;;;3.50;99.90;;;;;;4947772;29;20207;-74
2022/01/21 09:20:31;;;;;;;17.70;9.48;;;3.60;99.90;;;;;;4951217;28;20227;-74
2022/01/21 09:23:00;;;;;;;16.33;9.35;;;3.50;99.90;;;;;;4953402;29;20253;-74
2022/01/21 09:25:29;;;;;;;19.08;10.93;;;3.60;99.90;;;;;;4954056;28;20694;-73
2022/01/21 09:27:58;;;;;;;15.48;10.02;;;3.70;99.90;;;;;;4953611;29;20257;-73
2022/01/21 09:30:26;;;;;;;16.00;9.18;;;3.80;99.90;;;;;;4953521;29;20227;-73
2022/01/21 09:32:55;;;;;;;16.95;10.60;;;3.90;99.90;;;;;;4953867;29;20552;-73
2022/01/21 09:35:23;;;;;;;17.60;9.70;;;3.90;99.90;;;;;;4953877;28;20234;-73
2022/01/21 09:37:52;;;;;;;17.35;10.30;;;4.10;99.90;;;;;;4954026;29;20200;-74
2022/01/21 09:40:45;;;;;;;20.75;12.57;;;4.20;99.90;;;;;;4953104;28;20552;-74
2022/01/21 09:43:14;;;;;;;21.90;11.57;;;4.40;99.90;;;;;;4953933;29;20200;-74
2022/01/21 09:45:42;;;;;;;16.55;10.90;;;4.50;99.90;;;;;;4950280;28;20266;-74
2022/01/21 09:48:12;;;;;;;18.58;10.00;;;4.70;99.90;;;;;;4943227;29;20255;-72
2022/01/21 09:50:42;;;;;;;14.32;8.38;;;5.00;99.90;;;;;;4952932;29;20313;-72
2022/01/21 09:53:12;;;;;;;11.68;7.20;;;5.40;99.90;;;;;;4953204;29;20573;-70
2022/01/21 09:55:42;;;;;;;12.27;6.25;;;5.90;99.90;;;;;;4953400;29;20234;-72
2022/01/21 09:58:10;;;;;;;9.32;5.57;;;6.50;99.90;;;;;;4953421;29;20607;-73
2022/01/21 10:00:40;;;;;;;14.77;5.35;;;6.90;99.90;;;;;;4951885;29;20235;-72
2022/01/21 10:03:09;;;;;;;6.65;4.65;;;7.30;99.90;;;;;;4953059;29;20627;-72
2022/01/21 10:05:38;;;;;;;9.30;5.28;;;7.40;99.90;;;;;;4953374;28;20195;-72
2022/01/21 10:08:08;;;;;;;7.68;4.13;;;7.30;99.90;;;;;;4953194;29;20265;-72
2022/01/21 10:10:40;;;;;;;4.95;3.50;;;7.10;99.90;;;;;;4953652;29;20310;-74
2022/01/21 10:13:09;;;;;;;9.25;4.68;;;6.80;99.90;;;;;;4952859;29;20211;-74
2022/01/21 10:15:38;;;;;;;10.10;3.88;;;6.80;99.90;;;;;;4948793;28;20212;-73
2022/01/21 10:18:08;;;;;;;8.13;4.45;;;6.60;99.90;;;;;;4947212;29;20639;-74
2022/01/21 10:20:40;;;;;;;8.27;4.18;;;6.40;99.90;;;;;;4948772;28;20235;-74
2022/01/21 10:23:10;;;;;;;7.70;4.20;;;6.30;99.90;;;;;;4951820;29;20234;-72
2022/01/21 10:25:40;;;;;;;8.73;4.10;;;6.00;99.90;;;;;;4941114;29;20211;-72
2022/01/21 10:28:17;;;;;;;8.82;3.80;;;5.90;99.90;;;;;;4941182;29;20234;-72
2022/01/21 10:30:46;;;;;;;7.40;4.82;;;5.70;99.90;;;;;;4943477;29;20306;-72
2022/01/21 10:33:22;;;;;;;4.80;4.28;;;5.90;99.90;;;;;;4953066;28;20673;-72
2022/01/21 10:35:51;;;;;;;7.47;3.83;;;6.40;99.90;;;;;;4952965;29;20211;-72
2022/01/21 10:38:27;;;;;;;5.80;3.97;;;7.10;99.90;;;;;;4953378;29;20608;-74
2022/01/21 10:41:03;;;;;;;7.07;4.45;;;7.50;99.90;;;;;;4953585;29;20242;-74
2022/01/21 10:43:35;;;;;;;8.07;4.30;;;7.80;99.90;;;;;;4955352;28;20219;-73
2022/01/21 10:46:07;;;;;;;5.40;3.60;;;7.90;99.90;;;;;;4947180;28;20287;-73
2022/01/21 10:48:57;;;;;;;6.47;4.53;;;8.40;99.90;;;;;;4943119;28;20211;-72
2022/01/21 10:51:28;;;;;;;5.95;3.55;;;8.70;99.90;;;;;;4954826;28;20219;-73
2022/01/21 10:53:57;;;;;;;6.32;3.72;;;9.30;99.90;;;;;;4956357;28;20211;-73
2022/01/21 10:56:26;;;;;;;5.72;3.70;;;9.60;99.90;;;;;;4956431;29;20239;-73
2022/01/21 10:58:57;;;;;;;3.80;3.33;;;9.40;99.90;;;;;;4956585;29;20242;-73
2022/01/21 11:01:29;;;;;;;6.03;4.10;;;9.10;99.90;;;;;;4956958;28;20242;-73
2022/01/21 11:04:04;;;;;;;7.07;4.18;;;8.80;99.90;;;;;;4956879;29;20203;-73
2022/01/21 11:06:42;;;;;;;7.57;4.55;;;8.40;99.90;;;;;;4956912;29;20211;-73
2022/01/21 11:09:20;;;;;;;5.32;4.18;;;8.20;99.90;;;;;;4956646;29;20298;-73
2022/01/21 11:11:50;;;;;;;6.18;3.60;;;7.90;99.90;;;;;;4955950;29;20289;-72
2022/01/21 11:14:20;;;;;;;5.63;3.63;;;7.70;99.90;;;;;;4955841;29;20294;-72
2022/01/21 11:16:50;;;;;;;5.85;3.30;;;7.40;99.90;;;;;;4951288;29;20294;-72
2022/01/21 11:19:38;;;;;;;5.13;2.92;;;7.40;99.90;;;;;;4949855;29;20267;-72
2022/01/21 11:22:07;;;;;;;7.35;3.53;;;7.50;99.90;;;;;;4955711;29;20223;-73
2022/01/21 11:24:47;;;;;;;9.30;4.22;;;7.70;99.90;;;;;;4955636;29;20245;-73
2022/01/21 11:27:17;;;;;;;3.75;3.45;;;7.80;99.90;;;;;;4955719;29;20408;-73
2022/01/21 11:29:48;;;;;;;4.88;3.60;;;7.50;99.90;;;;;;4955319;29;20265;-73
2022/01/21 11:32:17;;;;;;;7.15;4.10;;;7.20;99.90;;;;;;4955383;28;20212;-73
2022/01/21 11:34:45;;;;;;;8.45;3.72;;;6.90;99.90;;;;;;4955627;29;20202;-75
2022/01/21 11:37:13;;;;;;;7.55;4.72;;;6.70;99.90;;;;;;4955678;28;20230;-73
2022/01/21 11:39:42;;;;;;;6.95;4.35;;;6.40;99.90;;;;;;4955334;29;20253;-73
2022/01/21 11:42:10;;;;;;;10.05;4.38;;;6.00;99.90;;;;;;4955147;29;20298;-74
2022/01/21 11:44:47;;;;;;;8.68;4.95;;;5.80;99.90;;;;;;4955127;29;20207;-74
2022/01/21 11:47:29;;;;;;;6.10;4.30;;;5.80;99.90;;;;;;4950078;29;20203;-74
2022/01/21 11:49:59;;;;;;;11.57;4.40;;;5.70;99.90;;;;;;4955065;28;20254;-73
2022/01/21 11:52:27;;;;;;;10.55;5.47;;;5.50;99.90;;;;;;4955126;28;20262;-73
2022/01/21 11:54:55;;;;;;;11.93;4.40;;;5.50;99.90;;;;;;4954959;29;20211;-72
2022/01/21 11:57:31;;;;;;;11.30;5.25;;;5.30;99.90;;;;;;4955093;29;20805;-73
2022/01/21 12:00:06;;;;;;;7.35;4.75;;;5.30;99.90;;;;;;4943663;29;20321;-74
2022/01/21 12:02:36;;;;;;;10.15;5.30;;;5.20;99.90;;;;;;4954122;28;20230;-73
2022/01/21 12:05:07;;;;;;;9.20;5.60;;;5.10;99.90;;;;;;4955147;29;20586;-74
2022/01/21 12:07:57;;;;;;;10.85;5.55;;;5.00;99.90;;;;;;4954919;29;20211;-73
2022/01/21 12:10:39;;;;;;;8.18;5.22;;;5.00;99.90;;;;;;4954427;28;20738;-73
2022/01/21 12:13:14;;;;;;;8.05;5.05;;;5.20;99.90;;;;;;4954714;29;20211;-74
2022/01/21 12:19:19;;;;;;;9.48;5.43;;;7.00;99.90;;;;;;4936616;29;20302;-73
2022/01/21 12:21:48;;;;;;;7.00;3.30;;;8.30;99.90;;;;;;4956275;28;20309;-74
2022/01/21 12:24:36;;;;;;;6.45;3.30;;;9.40;99.90;;;;;;4955234;29;20211;-74
2022/01/21 12:27:09;;;;;;;3.60;3.10;;;10.30;99.90;;;;;;4954688;29;20262;-74
2022/01/21 12:29:37;;;;;;;6.30;3.30;;;10.80;99.90;;;;;;4954493;29;20219;-74
2022/01/21 12:32:13;;;;;;;6.28;3.20;;;10.40;99.90;;;;;;4954424;29;20303;-74
2022/01/21 12:35:18;;;;;;;5.43;3.50;;;10.10;99.90;;;;;;4954750;29;20234;-74
2022/01/21 12:41:00;;;;;;;5.18;3.33;;;8.30;99.90;;;;;;4953568;28;20247;-73
2022/01/21 12:43:50;;;;;;;4.80;2.90;;;7.40;99.90;;;;;;4953946;28;20219;-74
2022/01/21 12:46:27;;;;;;;7.75;3.60;;;7.00;99.90;;;;;;4948155;28;20218;-74
2022/01/21 12:48:56;;;;;;;4.30;3.28;;;6.80;99.90;;;;;;4948328;29;20218;-74
2022/01/21 12:51:55;;;;;;;7.65;3.60;;;6.50;99.90;;;;;;4952713;29;20266;-74
2022/01/21 12:57:10;;;;;;;7.80;3.03;;;6.30;99.90;;;;;;4953902;29;20267;-75
2022/01/21 12:59:39;;;;;;;4.38;3.72;;;6.50;99.90;;;;;;4954225;28;20226;-75
2022/01/21 13:02:07;;;;;;;7.18;2.95;;;6.40;99.90;;;;;;4953697;29;20647;-74
2022/01/21 13:04:49;;;;;;;4.65;3.35;;;6.30;99.90;;;;;;4954350;29;20326;-73
2022/01/21 13:07:27;;;;;;;8.30;3.00;;;6.20;99.90;;;;;;4954127;28;20235;-73
2022/01/21 13:10:07;;;;;;;6.35;3.35;;;6.10;99.90;;;;;;4954537;28;20293;-74
2022/01/21 13:12:57;;;;;;;9.13;4.35;;;6.20;99.90;;;;;;4954103;29;20207;-73
2022/01/21 13:15:25;;;;;;;4.63;3.22;;;6.40;99.90;;;;;;4950952;28;20259;-74
2022/01/21 13:18:00;;;;;;;10.18;3.00;;;6.30;99.90;;;;;;4944810;28;20215;-74
2022/01/21 13:20:32;;;;;;;4.93;2.78;;;6.20;99.90;;;;;;4953998;28;20230;-74
2022/01/21 13:23:02;;;;;;;4.28;2.65;;;6.30;99.90;;;;;;4953384;28;20743;-74
2022/01/21 13:25:32;;;;;;;6.07;3.22;;;6.40;99.90;;;;;;4953516;28;20231;-75
2022/01/21 13:28:01;;;;;;;4.55;2.70;;;6.20;99.90;;;;;;4953791;29;20209;-74
2022/01/21 13:30:31;;;;;;;8.85;3.85;;;6.20;99.90;;;;;;4954458;28;20273;-73
2022/01/21 13:33:02;;;;;;;5.07;3.20;;;5.90;99.90;;;;;;4953138;28;20257;-73
2022/01/21 13:35:30;;;;;;;4.25;3.15;;;5.90;99.90;;;;;;4953526;28;20235;-73
2022/01/21 13:38:05;;;;;;;9.25;3.65;;;5.70;99.90;;;;;;4953838;29;20214;-74
2022/01/21 13:40:36;;;;;;;7.15;3.63;;;5.80;99.90;;;;;;4953558;29;20281;-74
2022/01/21 13:43:10;;;;;;;6.50;4.20;;;5.70;99.90;;;;;;4953263;29;20207;-73
2022/01/21 13:45:41;;;;;;;5.15;3.72;;;5.70;99.90;;;;;;4948199;29;20276;-72
2022/01/21 13:48:11;;;;;;;5.15;3.50;;;5.60;99.90;;;;;;4927925;29;20206;-73
2022/01/21 13:50:45;;;;;;;6.38;3.78;;;5.50;99.90;;;;;;4950191;29;20227;-72